Time;durP1;ratioP1;P1;durP2;ratioP2;P2;SDS_P1;SDS_P2;PMS_P1;PMS_P2;Temp;Humidity;BMP_temperature;BMP_pressure;BME280_temperature;BME280_humidity;BME280_pressure;Samples;Min_cycle;Max_cycle;Signal;HPM_P1;HPM_P2
2022/08/26 00:00:34;;;;;;;16.70;13.30;;;;;;;;;;5094148;28;20066;-73
2022/08/26 00:03:00;;;;;;;15.77;13.50;;;;;;;;;;5092278;28;20401;-77
2022/08/26 00:05:27;;;;;;;19.52;13.32;;;;;;;;;;5094052;28;20113;-79
2022/08/26 00:07:53;;;;;;;15.65;12.75;;;;;;;;;;5094301;28;20038;-80
2022/08/26 00:10:20;;;;;;;15.18;13.38;;;;;;;;;;5094393;28;20066;-80
2022/08/26 00:12:46;;;;;;;15.60;13.13;;;;;;;;;;5092509;28;20389;-80
2022/08/26 00:15:14;;;;;;;17.17;13.30;;;;;;;;;;5092650;28;20048;-74
2022/08/26 00:17:41;;;;;;;15.00;12.75;;;;;;;;;;5092277;28;20107;-79
2022/08/26 00:20:09;;;;;;;16.77;13.25;;;;;;;;;;5094743;28;20017;-80
2022/08/26 00:22:35;;;;;;;15.13;12.90;;;;;;;;;;5091746;28;20028;-79
2022/08/26 00:25:02;;;;;;;15.27;13.65;;;;;;;;;;5092412;28;20500;-80
2022/08/26 00:27:28;;;;;;;15.10;12.95;;;;;;;;;;5093930;28;20016;-78
2022/08/26 00:29:54;;;;;;;15.60;13.60;;;;;;;;;;5092886;28;20028;-80
2022/08/26 00:32:20;;;;;;;16.83;13.50;;;;;;;;;;5093722;28;20024;-74
2022/08/26 00:34:46;;;;;;;15.02;13.30;;;;;;;;;;5091734;28;20028;-80
2022/08/26 00:37:12;;;;;;;16.73;12.48;;;;;;;;;;5093785;28;20032;-81
2022/08/26 00:39:38;;;;;;;14.68;12.40;;;;;;;;;;5094049;28;20020;-74
2022/08/26 00:42:05;;;;;;;16.83;12.38;;;;;;;;;;5092740;28;20024;-74
2022/08/26 00:44:31;;;;;;;15.35;12.23;;;;;;;;;;5092299;28;20538;-78
2022/08/26 00:46:59;;;;;;;14.38;11.90;;;;;;;;;;5092939;28;20036;-79
2022/08/26 00:49:43;;;;;;;14.50;11.98;;;;;;;;;;5093289;28;20028;-77
2022/08/26 00:52:12;;;;;;;13.45;11.27;;;;;;;;;;5090075;28;20111;-76
2022/08/26 00:54:44;;;;;;;13.77;11.73;;;;;;;;;;5092141;28;20078;-73
2022/08/26 00:57:12;;;;;;;14.00;11.38;;;;;;;;;;5082567;28;20482;-79
2022/08/26 00:59:39;;;;;;;14.50;11.93;;;;;;;;;;5089291;28;20070;-72
2022/08/26 01:02:05;;;;;;;16.83;11.63;;;;;;;;;;5086020;28;20052;-77
2022/08/26 01:04:33;;;;;;;14.98;11.13;;;;;;;;;;5077287;28;20079;-72
2022/08/26 01:07:01;;;;;;;16.30;11.30;;;;;;;;;;5072379;28;20032;-73
2022/08/26 01:09:27;;;;;;;16.90;11.93;;;;;;;;;;5080939;28;20120;-78
2022/08/26 01:11:54;;;;;;;14.40;11.32;;;;;;;;;;5082570;28;20455;-72
2022/08/26 01:14:22;;;;;;;15.07;11.10;;;;;;;;;;5073811;28;20035;-77
2022/08/26 01:16:48;;;;;;;15.20;11.38;;;;;;;;;;5071744;28;20107;-78
2022/08/26 01:19:47;;;;;;;13.48;11.25;;;;;;;;;;5084627;28;20016;-79
2022/08/26 01:22:22;;;;;;;15.73;11.50;;;;;;;;;;5003884;28;20475;-79
2022/08/26 01:24:48;;;;;;;15.88;11.25;;;;;;;;;;4996715;28;20097;-78
2022/08/26 01:27:16;;;;;;;13.75;10.57;;;;;;;;;;4984340;28;20373;-77
2022/08/26 01:29:44;;;;;;;14.45;10.98;;;;;;;;;;5000841;28;20177;-80
2022/08/26 01:32:10;;;;;;;17.48;11.60;;;;;;;;;;5001623;28;20038;-80
2022/08/26 01:34:37;;;;;;;12.63;11.15;;;;;;;;;;4999445;28;20498;-72
2022/08/26 01:37:12;;;;;;;16.00;11.18;;;;;;;;;;4978490;28;20043;-80
2022/08/26 01:39:39;;;;;;;16.13;11.52;;;;;;;;;;5000178;28;20037;-78
2022/08/26 01:42:06;;;;;;;14.48;11.27;;;;;;;;;;5000850;28;20508;-70
2022/08/26 01:44:35;;;;;;;16.73;11.32;;;;;;;;;;4988703;28;20030;-76
2022/08/26 01:47:02;;;;;;;15.90;11.60;;;;;;;;;;4970488;28;20037;-76
2022/08/26 01:49:28;;;;;;;14.68;10.48;;;;;;;;;;4987435;28;20029;-80
2022/08/26 01:51:55;;;;;;;14.18;11.25;;;;;;;;;;4998448;28;20146;-80
2022/08/26 01:54:21;;;;;;;18.08;10.70;;;;;;;;;;5001611;28;20030;-76
2022/08/26 01:56:48;;;;;;;15.20;10.95;;;;;;;;;;4998266;28;20109;-76
2022/08/26 01:59:16;;;;;;;15.63;11.70;;;;;;;;;;5084164;28;20024;-75
2022/08/26 02:01:42;;;;;;;17.05;11.18;;;;;;;;;;5079298;28;20041;-78
2022/08/26 02:04:40;;;;;;;15.25;11.05;;;;;;;;;;5082276;28;20123;-71
2022/08/26 02:07:08;;;;;;;16.25;11.88;;;;;;;;;;4981441;28;20047;-77
2022/08/26 02:09:38;;;;;;;12.70;10.65;;;;;;;;;;4982157;28;20042;-79
2022/08/26 02:12:04;;;;;;;16.77;11.05;;;;;;;;;;4994994;28;21020;-75
2022/08/26 02:14:34;;;;;;;16.33;11.15;;;;;;;;;;4990813;28;20150;-77
2022/08/26 02:17:02;;;;;;;15.63;10.85;;;;;;;;;;4984264;28;20166;-78
2022/08/26 02:19:33;;;;;;;18.15;10.85;;;;;;;;;;4992057;28;20027;-78
2022/08/26 02:22:00;;;;;;;15.18;11.02;;;;;;;;;;4992444;28;20046;-77
2022/08/26 02:24:29;;;;;;;15.57;11.48;;;;;;;;;;4995929;28;20045;-72
2022/08/26 02:26:56;;;;;;;15.40;11.05;;;;;;;;;;4990007;28;20030;-81
2022/08/26 02:29:51;;;;;;;16.48;12.02;;;;;;;;;;5002727;28;20057;-79
2022/08/26 02:32:18;;;;;;;16.77;11.05;;;;;;;;;;4904013;29;20044;-74
2022/08/26 02:34:45;;;;;;;14.13;10.43;;;;;;;;;;4913897;29;20051;-77
2022/08/26 02:37:11;;;;;;;16.00;10.75;;;;;;;;;;4912404;29;20088;-70
2022/08/26 02:39:39;;;;;;;14.75;11.30;;;;;;;;;;4910558;29;20131;-78
2022/08/26 02:42:05;;;;;;;14.25;10.82;;;;;;;;;;4927572;28;20050;-71
2022/08/26 02:44:32;;;;;;;14.98;10.95;;;;;;;;;;4993417;28;20026;-75
2022/08/26 02:46:58;;;;;;;16.17;10.98;;;;;;;;;;4989081;28;20027;-75
2022/08/26 02:49:24;;;;;;;24.17;16.15;;;;;;;;;;4988589;28;20038;-76
2022/08/26 02:51:50;;;;;;;20.95;15.75;;;;;;;;;;4998138;28;20476;-78
2022/08/26 02:54:17;;;;;;;20.02;12.80;;;;;;;;;;4994086;28;20439;-79
2022/08/26 02:56:43;;;;;;;18.73;11.95;;;;;;;;;;4994786;28;20049;-76
2022/08/26 02:59:11;;;;;;;16.40;11.48;;;;;;;;;;4993522;28;20030;-71
2022/08/26 03:01:38;;;;;;;17.42;10.70;;;;;;;;;;4997405;28;20129;-71
2022/08/26 03:04:05;;;;;;;18.30;10.35;;;;;;;;;;4995170;28;20046;-76
2022/08/26 03:06:31;;;;;;;19.95;11.20;;;;;;;;;;4994804;28;20038;-72
2022/08/26 03:08:58;;;;;;;18.50;10.60;;;;;;;;;;5044304;28;20036;-80
2022/08/26 03:11:24;;;;;;;18.95;10.90;;;;;;;;;;5070278;28;20032;-71
2022/08/26 03:13:51;;;;;;;14.25;10.65;;;;;;;;;;5072676;28;20510;-74
2022/08/26 03:16:17;;;;;;;13.18;10.35;;;;;;;;;;5075057;28;20119;-76
2022/08/26 03:18:44;;;;;;;15.65;10.45;;;;;;;;;;5071200;28;20065;-80
2022/08/26 03:21:13;;;;;;;16.95;10.23;;;;;;;;;;5072641;28;20032;-79
2022/08/26 03:23:40;;;;;;;16.17;10.75;;;;;;;;;;5075085;28;20020;-79
2022/08/26 03:26:06;;;;;;;15.45;10.32;;;;;;;;;;5073542;28;20032;-80
2022/08/26 03:28:33;;;;;;;22.65;11.15;;;;;;;;;;5075017;28;20518;-78
2022/08/26 03:30:59;;;;;;;18.52;11.00;;;;;;;;;;5072754;28;20426;-80
2022/08/26 03:33:25;;;;;;;16.42;10.68;;;;;;;;;;5074319;28;20390;-76
2022/08/26 03:35:51;;;;;;;18.45;10.93;;;;;;;;;;5072122;28;20119;-78
2022/08/26 03:38:19;;;;;;;15.38;10.88;;;;;;;;;;5074770;28;20031;-79
2022/08/26 03:40:45;;;;;;;16.95;11.00;;;;;;;;;;5075138;28;20382;-79
2022/08/26 03:43:11;;;;;;;14.77;10.75;;;;;;;;;;5072793;28;20029;-77
2022/08/26 03:45:38;;;;;;;15.52;11.25;;;;;;;;;;5074451;28;20028;-78
2022/08/26 03:48:05;;;;;;;17.08;10.70;;;;;;;;;;5074195;28;20017;-77
2022/08/26 03:50:31;;;;;;;17.67;11.40;;;;;;;;;;5074578;28;20399;-74
2022/08/26 03:52:57;;;;;;;18.15;10.50;;;;;;;;;;5073024;28;20386;-73
2022/08/26 03:55:24;;;;;;;19.05;10.75;;;;;;;;;;5073041;28;20107;-78
2022/08/26 03:57:51;;;;;;;22.67;12.18;;;;;;;;;;5065021;28;20479;-76
2022/08/26 04:00:17;;;;;;;18.63;11.15;;;;;;;;;;5073805;28;20033;-78
2022/08/26 04:02:44;;;;;;;19.77;11.45;;;;;;;;;;5077813;28;20040;-77
2022/08/26 04:05:12;;;;;;;16.60;11.10;;;;;;;;;;5066156;28;20105;-76
2022/08/26 04:07:39;;;;;;;18.35;11.18;;;;;;;;;;5071309;28;20110;-76
2022/08/26 04:10:05;;;;;;;20.13;11.30;;;;;;;;;;5068716;28;20071;-78
2022/08/26 04:12:31;;;;;;;13.63;10.30;;;;;;;;;;5078090;28;20031;-74
2022/08/26 04:14:57;;;;;;;16.98;10.95;;;;;;;;;;5074378;28;20029;-71
2022/08/26 04:17:25;;;;;;;21.65;10.32;;;;;;;;;;5075546;28;20032;-78
2022/08/26 04:19:52;;;;;;;15.35;10.65;;;;;;;;;;5086488;28;20024;-76
2022/08/26 04:22:19;;;;;;;15.00;9.98;;;;;;;;;;5084680;28;20043;-72
2022/08/26 04:24:45;;;;;;;15.98;11.13;;;;;;;;;;5074147;28;20028;-73
2022/08/26 04:27:12;;;;;;;13.70;10.40;;;;;;;;;;5081348;28;20120;-75
2022/08/26 04:29:39;;;;;;;19.83;10.38;;;;;;;;;;5073252;28;20490;-75
2022/08/26 04:32:05;;;;;;;21.75;16.00;;;;;;;;;;5073934;28;20074;-75
2022/08/26 04:34:31;;;;;;;21.08;15.15;;;;;;;;;;5078451;28;20120;-75
2022/08/26 04:36:58;;;;;;;17.52;12.25;;;;;;;;;;5081270;28;20041;-74
2022/08/26 04:39:24;;;;;;;22.17;11.43;;;;;;;;;;5081212;28;20027;-74
2022/08/26 04:41:53;;;;;;;18.05;11.23;;;;;;;;;;5075768;28;20077;-71
2022/08/26 04:44:20;;;;;;;16.05;10.88;;;;;;;;;;5061447;28;20031;-70
2022/08/26 04:46:46;;;;;;;15.98;9.93;;;;;;;;;;5063465;28;20374;-80
2022/08/26 04:49:12;;;;;;;17.35;10.23;;;;;;;;;;5078322;28;20024;-76
2022/08/26 04:51:39;;;;;;;27.80;11.07;;;;;;;;;;5079659;28;20122;-72
2022/08/26 04:54:06;;;;;;;23.25;10.80;;;;;;;;;;5086020;28;20118;-76
2022/08/26 04:56:34;;;;;;;15.50;9.93;;;;;;;;;;5084179;28;20036;-76
2022/08/26 04:59:14;;;;;;;21.65;10.05;;;;;;;;;;5078322;28;20037;-72
2022/08/26 05:01:44;;;;;;;26.23;10.73;;;;;;;;;;5068103;28;20040;-77
2022/08/26 05:04:10;;;;;;;15.57;11.75;;;;;;;;;;5077238;28;20028;-78
2022/08/26 05:06:38;;;;;;;15.32;10.45;;;;;;;;;;5083755;28;20121;-75
2022/08/26 05:09:04;;;;;;;24.20;12.65;;;;;;;;;;5092216;28;20067;-74
2022/08/26 05:11:31;;;;;;;20.38;11.30;;;;;;;;;;5102283;28;20035;-76
2022/08/26 05:13:57;;;;;;;13.35;9.45;;;;;;;;;;5088573;28;20111;-76
2022/08/26 05:16:50;;;;;;;17.83;10.32;;;;;;;;;;5091088;28;20867;-73
2022/08/26 05:19:17;;;;;;;14.60;9.70;;;;;;;;;;5082541;28;20428;-83
2022/08/26 05:21:43;;;;;;;13.48;10.43;;;;;;;;;;5074987;28;20024;-76
2022/08/26 05:24:11;;;;;;;14.35;9.85;;;;;;;;;;5095743;28;20032;-79
2022/08/26 05:26:38;;;;;;;12.95;8.75;;;;;;;;;;5091032;28;20031;-80
2022/08/26 05:29:05;;;;;;;12.73;9.25;;;;;;;;;;5091276;28;20103;-76
2022/08/26 05:31:31;;;;;;;13.07;8.40;;;;;;;;;;5091819;28;20102;-75
2022/08/26 05:33:58;;;;;;;13.43;8.80;;;;;;;;;;5091719;28;20296;-74
2022/08/26 05:36:26;;;;;;;13.10;8.80;;;;;;;;;;5091878;28;20551;-73
2022/08/26 05:38:52;;;;;;;13.60;8.27;;;;;;;;;;5074707;28;20413;-71
2022/08/26 05:41:27;;;;;;;15.48;8.70;;;;;;;;;;5070843;28;20403;-72
2022/08/26 05:43:55;;;;;;;15.40;8.93;;;;;;;;;;5092097;28;20087;-74
2022/08/26 05:46:22;;;;;;;12.07;8.40;;;;;;;;;;5094923;28;20030;-76
2022/08/26 05:48:48;;;;;;;10.73;8.63;;;;;;;;;;5061897;28;20021;-71
2022/08/26 05:51:15;;;;;;;20.33;8.95;;;;;;;;;;5086469;28;20059;-72
2022/08/26 05:53:41;;;;;;;10.75;8.57;;;;;;;;;;5091976;28;20024;-81
2022/08/26 05:56:08;;;;;;;10.00;8.45;;;;;;;;;;5092684;28;20024;-80
2022/08/26 05:58:35;;;;;;;12.82;8.20;;;;;;;;;;5092397;28;20094;-79
2022/08/26 06:01:06;;;;;;;12.63;8.65;;;;;;;;;;5092194;28;20041;-73
2022/08/26 06:03:33;;;;;;;14.15;7.82;;;;;;;;;;5092688;28;20075;-80
2022/08/26 06:06:02;;;;;;;12.02;8.73;;;;;;;;;;5092739;28;20556;-73
2022/08/26 06:08:28;;;;;;;15.35;8.73;;;;;;;;;;5091779;28;20020;-82
2022/08/26 06:10:56;;;;;;;16.45;9.88;;;;;;;;;;5092179;28;20099;-78
2022/08/26 06:13:25;;;;;;;10.88;8.48;;;;;;;;;;5092708;28;20021;-81
2022/08/26 06:15:51;;;;;;;12.13;8.27;;;;;;;;;;5092732;28;20032;-75
2022/08/26 06:18:19;;;;;;;11.02;8.20;;;;;;;;;;5089752;28;20095;-77
2022/08/26 06:20:46;;;;;;;11.48;8.18;;;;;;;;;;5082214;28;20127;-75
2022/08/26 06:25:58;;;;;;;14.10;8.85;;;;;;;;;;5096745;28;20030;-81
2022/08/26 06:28:24;;;;;;;14.35;8.45;;;;;;;;;;5076040;28;20082;-82
2022/08/26 06:30:51;;;;;;;14.88;8.48;;;;;;;;;;5088486;28;20030;-74
2022/08/26 06:33:17;;;;;;;12.30;8.15;;;;;;;;;;5093489;28;20069;-74
2022/08/26 06:35:45;;;;;;;10.60;8.73;;;;;;;;;;5087466;28;20482;-73
2022/08/26 06:38:12;;;;;;;16.52;8.55;;;;;;;;;;5080978;28;20046;-75
2022/08/26 06:40:49;;;;;;;13.88;8.32;;;;;;;;;;5086949;28;20024;-77
2022/08/26 06:43:16;;;;;;;10.30;7.72;;;;;;;;;;5084940;28;20028;-76
2022/08/26 06:45:44;;;;;;;11.70;8.73;;;;;;;;;;5091422;28;20020;-76
2022/08/26 06:48:11;;;;;;;9.55;7.85;;;;;;;;;;5086304;28;20053;-75
2022/08/26 06:50:37;;;;;;;11.40;8.27;;;;;;;;;;5092737;28;20031;-76
2022/08/26 06:53:03;;;;;;;15.18;8.38;;;;;;;;;;5090279;28;20028;-76
2022/08/26 06:55:29;;;;;;;18.08;8.35;;;;;;;;;;5087715;28;20020;-79
2022/08/26 06:57:57;;;;;;;18.85;8.40;;;;;;;;;;5083069;28;20031;-76
2022/08/26 07:00:23;;;;;;;16.08;8.32;;;;;;;;;;5087225;28;20021;-74
2022/08/26 07:02:49;;;;;;;19.35;8.00;;;;;;;;;;5089306;28;20127;-75
2022/08/26 07:05:16;;;;;;;12.45;8.10;;;;;;;;;;5095216;28;20055;-77
2022/08/26 07:07:42;;;;;;;8.93;7.82;;;;;;;;;;5095571;28;20392;-78
2022/08/26 07:10:08;;;;;;;12.63;8.20;;;;;;;;;;5096824;28;20397;-75
2022/08/26 07:12:35;;;;;;;9.88;7.80;;;;;;;;;;5090434;28;20390;-75
2022/08/26 07:15:02;;;;;;;10.65;7.78;;;;;;;;;;5066893;28;20434;-76
2022/08/26 07:17:28;;;;;;;14.52;8.10;;;;;;;;;;5085310;28;20028;-76
2022/08/26 07:19:54;;;;;;;16.48;8.68;;;;;;;;;;5093313;28;20465;-76
2022/08/26 07:22:20;;;;;;;16.20;8.32;;;;;;;;;;5096489;28;20028;-75
2022/08/26 07:24:46;;;;;;;17.65;7.85;;;;;;;;;;5095816;28;20013;-78
2022/08/26 07:27:14;;;;;;;11.40;7.72;;;;;;;;;;5093268;28;20103;-76
2022/08/26 07:29:42;;;;;;;19.25;7.55;;;;;;;;;;5095477;28;20023;-74
2022/08/26 07:32:09;;;;;;;17.35;8.13;;;;;;;;;;5096607;28;20019;-78
2022/08/26 07:34:36;;;;;;;13.45;7.47;;;;;;;;;;5101106;28;20101;-79
2022/08/26 07:37:02;;;;;;;17.83;7.43;;;;;;;;;;5084097;28;20036;-77
2022/08/26 07:39:28;;;;;;;16.70;7.07;;;;;;;;;;5086991;28;20026;-76
2022/08/26 07:41:55;;;;;;;11.50;7.95;;;;;;;;;;5095971;28;20024;-75
2022/08/26 07:44:21;;;;;;;16.70;7.93;;;;;;;;;;5107774;28;20024;-76
2022/08/26 07:46:47;;;;;;;12.82;7.80;;;;;;;;;;5094667;28;20423;-76
2022/08/26 07:49:13;;;;;;;14.65;7.47;;;;;;;;;;5093542;28;20100;-79
2022/08/26 07:51:39;;;;;;;11.38;8.07;;;;;;;;;;5086664;28;20074;-84
2022/08/26 07:54:06;;;;;;;11.77;7.93;;;;;;;;;;5079586;28;20031;-79
2022/08/26 07:56:32;;;;;;;12.50;8.35;;;;;;;;;;5090165;28;20036;-80
2022/08/26 07:58:58;;;;;;;11.82;8.52;;;;;;;;;;5095869;28;20055;-81
2022/08/26 08:01:25;;;;;;;15.25;8.65;;;;;;;;;;5086176;28;20043;-84
2022/08/26 08:03:52;;;;;;;15.88;8.68;;;;;;;;;;5096898;28;20965;-86
2022/08/26 08:06:19;;;;;;;14.88;7.72;;;;;;;;;;5070612;28;20025;-85
2022/08/26 08:08:45;;;;;;;18.35;8.73;;;;;;;;;;5073512;28;20034;-83
2022/08/26 08:11:11;;;;;;;15.45;8.07;;;;;;;;;;5082035;28;20027;-85
2022/08/26 08:13:38;;;;;;;17.83;7.85;;;;;;;;;;5091122;28;20153;-79
2022/08/26 08:16:05;;;;;;;12.40;8.50;;;;;;;;;;5077977;28;20032;-81
2022/08/26 08:18:31;;;;;;;15.27;7.53;;;;;;;;;;5092546;28;20019;-82
2022/08/26 08:21:01;;;;;;;11.75;7.80;;;;;;;;;;5090290;28;20481;-79
2022/08/26 08:23:28;;;;;;;14.70;7.60;;;;;;;;;;5090937;28;20020;-77
2022/08/26 08:26:05;;;;;;;15.27;8.25;;;;;;;;;;5087478;28;20052;-80
2022/08/26 08:28:31;;;;;;;16.17;7.47;;;;;;;;;;5091275;28;20051;-81
2022/08/26 08:30:57;;;;;;;13.75;7.97;;;;;;;;;;5085740;28;20035;-76
2022/08/26 08:33:24;;;;;;;12.07;7.38;;;;;;;;;;5101597;28;20035;-83
2022/08/26 08:35:51;;;;;;;23.02;7.85;;;;;;;;;;5086086;28;20038;-77
2022/08/26 08:38:18;;;;;;;19.52;7.63;;;;;;;;;;5094812;28;20114;-84
2022/08/26 08:40:45;;;;;;;15.68;7.30;;;;;;;;;;5090500;28;20047;-81
2022/08/26 08:43:12;;;;;;;23.58;8.30;;;;;;;;;;5096408;28;20020;-81
2022/08/26 08:45:53;;;;;;;35.53;9.77;;;;;;;;;;5081914;28;20083;-78
2022/08/26 08:48:21;;;;;;;21.10;8.45;;;;;;;;;;5093028;28;20358;-89
2022/08/26 08:50:49;;;;;;;18.88;8.82;;;;;;;;;;5075347;28;20381;-77
2022/08/26 08:53:30;;;;;;;16.35;8.38;;;;;;;;;;5072295;28;20432;-83
2022/08/26 08:56:12;;;;;;;12.35;8.25;;;;;;;;;;5096952;28;20038;-75
2022/08/26 08:58:53;;;;;;;14.63;8.07;;;;;;;;;;5080342;28;20508;-77
2022/08/26 09:01:30;;;;;;;13.30;8.20;;;;;;;;;;5086534;28;20047;-76
2022/08/26 09:03:56;;;;;;;15.50;7.93;;;;;;;;;;5087909;28;20040;-80
2022/08/26 09:06:22;;;;;;;14.13;8.52;;;;;;;;;;5085117;28;20027;-78
2022/08/26 09:08:50;;;;;;;11.32;7.75;;;;;;;;;;5091684;28;20028;-78
2022/08/26 09:11:19;;;;;;;14.20;8.85;;;;;;;;;;5095969;28;20496;-86
2022/08/26 09:13:50;;;;;;;11.85;8.18;;;;;;;;;;5079454;28;20042;-85
2022/08/26 09:16:19;;;;;;;13.38;8.05;;;;;;;;;;5099774;28;20023;-83
2022/08/26 09:18:47;;;;;;;15.40;7.90;;;;;;;;;;5096246;28;20066;-79
2022/08/26 09:21:14;;;;;;;12.52;7.78;;;;;;;;;;5067316;28;20050;-82
2022/08/26 09:23:41;;;;;;;19.73;8.00;;;;;;;;;;5087001;28;20032;-82
2022/08/26 09:26:21;;;;;;;13.40;8.10;;;;;;;;;;5088325;28;20036;-81
2022/08/26 09:28:57;;;;;;;13.90;8.05;;;;;;;;;;5092268;28;20077;-81
2022/08/26 09:31:24;;;;;;;12.75;7.63;;;;;;;;;;5087678;28;20526;-82
2022/08/26 09:34:09;;;;;;;21.00;7.75;;;;;;;;;;5072478;28;20089;-76
2022/08/26 09:36:40;;;;;;;13.05;7.60;;;;;;;;;;5089766;28;20032;-84
2022/08/26 09:39:24;;;;;;;12.93;7.78;;;;;;;;;;5093232;28;20091;-83
2022/08/26 09:42:09;;;;;;;15.85;8.02;;;;;;;;;;5090676;28;20056;-77
2022/08/26 09:44:51;;;;;;;17.45;7.38;;;;;;;;;;5067748;28;20032;-80
2022/08/26 09:47:20;;;;;;;19.33;7.78;;;;;;;;;;5072641;28;20078;-75
2022/08/26 09:49:56;;;;;;;16.27;7.93;;;;;;;;;;5087993;28;20032;-82
2022/08/26 09:52:25;;;;;;;12.00;6.75;;;;;;;;;;5067073;28;20105;-77
2022/08/26 09:55:09;;;;;;;18.60;7.15;;;;;;;;;;5064514;28;20077;-78
2022/08/26 09:57:44;;;;;;;16.70;6.72;;;;;;;;;;5096571;28;20036;-79
2022/08/26 10:00:29;;;;;;;17.88;6.97;;;;;;;;;;5079879;28;20025;-87
2022/08/26 10:02:56;;;;;;;16.13;7.53;;;;;;;;;;5094012;28;20064;-87
2022/08/26 10:05:30;;;;;;;15.15;7.60;;;;;;;;;;5077810;28;20036;-88
2022/08/26 10:07:56;;;;;;;16.55;7.55;;;;;;;;;;5087208;28;20043;-86
2022/08/26 10:10:25;;;;;;;18.40;7.82;;;;;;;;;;5081692;28;20107;-87
2022/08/26 10:13:01;;;;;;;14.27;8.57;;;;;;;;;;5080551;28;20028;-87
2022/08/26 10:15:33;;;;;;;18.65;7.50;;;;;;;;;;5091197;28;20032;-82
2022/08/26 10:18:17;;;;;;;14.98;7.07;;;;;;;;;;5078846;28;20078;-83
2022/08/26 10:20:53;;;;;;;12.57;7.20;;;;;;;;;;5082723;28;20052;-80
2022/08/26 10:23:23;;;;;;;11.95;6.80;;;;;;;;;;5066670;28;20032;-81
2022/08/26 10:25:57;;;;;;;13.27;7.05;;;;;;;;;;5080895;28;20028;-79
2022/08/26 10:28:30;;;;;;;14.48;6.80;;;;;;;;;;5076758;28;20032;-80
2022/08/26 10:31:00;;;;;;;21.17;6.10;;;;;;;;;;5096832;28;20107;-81
2022/08/26 10:33:26;;;;;;;17.85;6.63;;;;;;;;;;5077436;28;20477;-81
2022/08/26 10:35:54;;;;;;;14.02;6.55;;;;;;;;;;5069319;28;20032;-83
2022/08/26 10:38:28;;;;;;;14.98;6.82;;;;;;;;;;5069122;28;20028;-81
2022/08/26 10:41:01;;;;;;;12.82;7.03;;;;;;;;;;5095883;28;20076;-78
2022/08/26 10:43:27;;;;;;;15.85;7.35;;;;;;;;;;5074112;28;20031;-80
2022/08/26 10:45:56;;;;;;;15.82;6.85;;;;;;;;;;5086913;28;20469;-80
2022/08/26 10:48:31;;;;;;;13.63;6.60;;;;;;;;;;5101997;28;20070;-85
2022/08/26 10:51:01;;;;;;;14.52;7.00;;;;;;;;;;5099809;28;20032;-89
2022/08/26 10:53:34;;;;;;;12.68;6.63;;;;;;;;;;5086363;28;20073;-82
2022/08/26 10:56:27;;;;;;;17.47;7.00;;;;;;;;;;5093197;28;20420;-86
2022/08/26 10:59:12;;;;;;;13.23;6.38;;;;;;;;;;5077244;28;20477;-83
2022/08/26 11:01:58;;;;;;;14.25;6.95;;;;;;;;;;5076883;28;20048;-76
2022/08/26 11:04:43;;;;;;;16.45;9.20;;;;;;;;;;5074781;28;20032;-76
2022/08/26 11:07:35;;;;;;;13.70;6.90;;;;;;;;;;5074875;28;20028;-75
2022/08/26 11:10:19;;;;;;;14.60;6.80;;;;;;;;;;5068646;28;20040;-84
2022/08/26 11:12:46;;;;;;;16.63;7.65;;;;;;;;;;5073932;28;20055;-85
2022/08/26 11:15:21;;;;;;;13.38;6.30;;;;;;;;;;5070313;28;20121;-83
2022/08/26 11:17:55;;;;;;;14.95;6.20;;;;;;;;;;5079675;28;20049;-81
2022/08/26 11:20:33;;;;;;;13.80;6.32;;;;;;;;;;5074086;28;20037;-83
2022/08/26 11:23:12;;;;;;;14.90;6.60;;;;;;;;;;5069346;28;20025;-82
2022/08/26 11:26:00;;;;;;;11.05;5.90;;;;;;;;;;5064725;28;20054;-82
2022/08/26 11:28:44;;;;;;;18.20;5.75;;;;;;;;;;5059718;28;20394;-82
2022/08/26 11:31:47;;;;;;;15.35;5.95;;;;;;;;;;5071715;28;20031;-87
2022/08/26 11:34:13;;;;;;;9.35;5.32;;;;;;;;;;5072360;28;20032;-85
2022/08/26 11:36:45;;;;;;;17.85;6.90;;;;;;;;;;5066070;28;20051;-85
2022/08/26 11:39:21;;;;;;;13.85;5.70;;;;;;;;;;5076690;28;20021;-78
2022/08/26 11:41:49;;;;;;;11.77;5.07;;;;;;;;;;5072492;28;20028;-81
2022/08/26 11:44:16;;;;;;;14.63;5.45;;;;;;;;;;5068901;28;20452;-77
2022/08/26 11:46:50;;;;;;;13.85;5.93;;;;;;;;;;5067873;28;20021;-87
2022/08/26 11:49:17;;;;;;;13.35;5.70;;;;;;;;;;5074316;28;20032;-87
2022/08/26 11:51:43;;;;;;;19.27;6.15;;;;;;;;;;5068431;28;20086;-79
2022/08/26 11:54:11;;;;;;;17.45;5.68;;;;;;;;;;5069315;28;20025;-78
2022/08/26 11:56:38;;;;;;;13.10;6.00;;;;;;;;;;5069962;28;20107;-82
2022/08/26 11:59:08;;;;;;;11.02;6.10;;;;;;;;;;5072029;28;20029;-80
2022/08/26 12:01:36;;;;;;;18.10;6.03;;;;;;;;;;5082550;28;20385;-80
2022/08/26 12:04:06;;;;;;;17.10;5.68;;;;;;;;;;5082996;28;20394;-76
2022/08/26 12:06:36;;;;;;;16.23;6.05;;;;;;;;;;5090049;28;20485;-80
2022/08/26 12:09:07;;;;;;;11.70;6.00;;;;;;;;;;5095323;28;20020;-77
2022/08/26 12:11:35;;;;;;;16.50;5.78;;;;;;;;;;5079996;28;20039;-82
2022/08/26 12:14:19;;;;;;;11.07;5.50;;;;;;;;;;5083903;28;20039;-79
2022/08/26 12:16:45;;;;;;;8.55;5.32;;;;;;;;;;5075774;28;20028;-82
2022/08/26 12:19:28;;;;;;;18.45;6.00;;;;;;;;;;5091691;28;20032;-77
2022/08/26 12:21:58;;;;;;;14.15;6.13;;;;;;;;;;5082660;28;20072;-78
2022/08/26 12:24:24;;;;;;;1042.90;592.60;;;;;;;;;;5086339;28;20024;-78
2022/08/26 12:26:50;;;;;;;31.27;12.98;;;;;;;;;;5088755;28;20031;-77
2022/08/26 12:29:24;;;;;;;25.90;14.50;;;;;;;;;;5093013;28;20020;-77
2022/08/26 12:31:51;;;;;;;15.98;6.75;;;;;;;;;;5087500;28;20463;-75
2022/08/26 12:34:18;;;;;;;12.52;6.07;;;;;;;;;;5089946;28;20035;-77
2022/08/26 12:36:46;;;;;;;16.15;5.72;;;;;;;;;;5086230;28;20036;-79
2022/08/26 12:39:14;;;;;;;17.00;6.28;;;;;;;;;;5086994;28;20016;-78
2022/08/26 12:41:46;;;;;;;13.27;5.47;;;;;;;;;;5074032;28;20032;-83
2022/08/26 12:44:31;;;;;;;17.35;6.18;;;;;;;;;;5095408;28;20493;-79
2022/08/26 12:47:04;;;;;;;13.55;6.32;;;;;;;;;;5100082;28;20036;-82
2022/08/26 12:49:30;;;;;;;18.15;5.43;;;;;;;;;;5084545;28;20020;-83
2022/08/26 12:51:57;;;;;;;15.05;6.22;;;;;;;;;;5092279;28;20016;-78
2022/08/26 12:54:57;;;;;;;11.85;5.53;;;;;;;;;;5092464;28;20027;-79
2022/08/26 12:57:10;;;;;;;16.25;5.90;;;;;;;;;;5087947;28;20048;-80
2022/08/26 12:59:36;;;;;;;11.63;5.05;;;;;;;;;;5082520;28;20376;-89
2022/08/26 13:02:02;;;;;;;11.90;5.40;;;;;;;;;;5070725;28;20048;-86
2022/08/26 13:04:41;;;;;;;16.70;6.10;;;;;;;;;;5080252;28;20509;-88
2022/08/26 13:07:21;;;;;;;18.88;6.03;;;;;;;;;;5083227;28;20059;-87
2022/08/26 13:09:49;;;;;;;11.18;5.72;;;;;;;;;;5075067;28;20016;-88
2022/08/26 13:12:30;;;;;;;13.52;5.45;;;;;;;;;;5075244;28;20114;-85
2022/08/26 13:14:57;;;;;;;13.35;5.40;;;;;;;;;;5068799;28;20063;-82
2022/08/26 13:17:24;;;;;;;16.75;5.78;;;;;;;;;;5075077;28;20114;-82
2022/08/26 13:19:50;;;;;;;19.83;5.40;;;;;;;;;;5092685;28;20024;-80
2022/08/26 13:22:21;;;;;;;12.43;5.13;;;;;;;;;;5093549;28;20116;-80
2022/08/26 13:25:05;;;;;;;11.75;5.22;;;;;;;;;;5091835;28;20028;-80
2022/08/26 13:28:00;;;;;;;;;;;;;;;;;;;;;
2022/08/26 13:30:26;;;;;;;13.20;5.28;;;;;;;;;;5088999;28;20036;-78
2022/08/26 13:32:56;;;;;;;13.77;6.40;;;;;;;;;;5088602;28;20028;-82
2022/08/26 13:35:22;;;;;;;11.00;4.78;;;;;;;;;;5086660;28;20035;-80
2022/08/26 13:37:48;;;;;;;12.65;5.20;;;;;;;;;;5086554;28;20155;-79
2022/08/26 13:40:14;;;;;;;16.70;5.40;;;;;;;;;;5069056;28;20028;-80
2022/08/26 13:42:40;;;;;;;12.55;5.35;;;;;;;;;;5072224;28;20093;-80
2022/08/26 13:45:08;;;;;;;20.23;5.50;;;;;;;;;;5075239;28;20509;-79
2022/08/26 13:47:35;;;;;;;13.38;5.05;;;;;;;;;;5092290;28;20477;-80
2022/08/26 13:50:01;;;;;;;12.05;5.13;;;;;;;;;;5087069;28;20020;-77
2022/08/26 13:52:27;;;;;;;13.48;5.68;;;;;;;;;;5089934;28;20024;-77
2022/08/26 13:54:53;;;;;;;13.55;5.07;;;;;;;;;;5088326;28;20070;-79
2022/08/26 13:57:23;;;;;;;11.48;5.70;;;;;;;;;;5090308;28;20043;-77
2022/08/26 13:59:55;;;;;;;10.27;4.93;;;;;;;;;;5093614;28;20132;-80
2022/08/26 14:02:21;;;;;;;10.88;4.88;;;;;;;;;;5079819;28;20051;-83
2022/08/26 14:04:47;;;;;;;13.10;5.40;;;;;;;;;;5067487;28;20046;-82
2022/08/26 14:07:14;;;;;;;11.07;5.00;;;;;;;;;;5087894;28;20016;-77
2022/08/26 14:09:40;;;;;;;16.08;5.88;;;;;;;;;;5091667;28;20035;-75
2022/08/26 14:12:06;;;;;;;10.82;5.13;;;;;;;;;;5088473;28;20031;-79
2022/08/26 14:14:32;;;;;;;15.38;5.10;;;;;;;;;;5071961;28;20036;-76
2022/08/26 14:16:58;;;;;;;18.38;7.45;;;;;;;;;;5089348;28;20047;-80
2022/08/26 14:19:24;;;;;;;11.25;5.28;;;;;;;;;;5089683;28;20103;-78
2022/08/26 14:24:44;;;;;;;13.63;5.00;;;;;;;;;;4995767;28;20031;-79
2022/08/26 14:27:11;;;;;;;13.40;5.43;;;;;;;;;;4988551;28;20090;-89
2022/08/26 14:29:37;;;;;;;16.40;5.07;;;;;;;;;;4991466;28;20117;-77
2022/08/26 14:32:17;;;;;;;16.38;5.38;;;;;;;;;;4992417;28;20082;-80
2022/08/26 14:34:44;;;;;;;13.00;5.63;;;;;;;;;;4973095;28;20045;-80
2022/08/26 14:37:11;;;;;;;16.15;5.75;;;;;;;;;;4984799;28;20622;-78
2022/08/26 14:39:37;;;;;;;11.82;5.70;;;;;;;;;;4990290;28;20049;-78
2022/08/26 14:42:03;;;;;;;13.32;4.65;;;;;;;;;;4997202;28;20045;-77
2022/08/26 14:44:31;;;;;;;10.43;4.75;;;;;;;;;;4988062;28;20034;-76